Shacklefords, Virginia
Current Conditions -  °F | °C
As of 1:15 AM on Thursday 29 Jan 2015 (Local Time) from KFYJ Reporting Station
Clear Clear  
Wind Chill: 23°   Ceiling: Unl
Heat Index: 23°   Visibility: 10mi
Dew Point: 15°   Wind: 0mph
Humidity: 70%   Direction: NA
Pressure: 30.36"   Gusts: NA
Location:  37.55°N, 76.73°W
Report Text: KFYJ 290615Z AUTO 00000KT 10SM CLR M05/M10 A3036 RMK AO2 T10481096
Loading
Personal Weather Stations






























Interactive Weather Map New forecast layout! Learn more

10-Day Weather Forecast

Advertisements
Track Severe Weather on mobile